Time;durP1;ratioP1;P1;durP2;ratioP2;P2;SDS_P1;SDS_P2;PMS_P1;PMS_P2;Temp;Humidity;BMP_temperature;BMP_pressure;BME280_temperature;BME280_humidity;BME280_pressure;Samples;Min_cycle;Max_cycle;Signal;HPM_P1;HPM_P2
2021/08/09 00:08:18;;;;;;;3.8;2.3;;;;;;;16.25;100;98716.4;;;;
2021/08/09 00:18:17;;;;;;;3.1;1.7;;;;;;;16.26;100;98714.48;;;;
2021/08/09 00:28:16;;;;;;;2.3;1.1;;;;;;;16.34;100;98738.05;;;;
2021/08/09 00:38:16;;;;;;;4.7;1.4;;;;;;;16.16;100;98739.41;;;;
2021/08/09 00:48:16;;;;;;;4.2;1.6;;;;;;;16.18;100;98765.13;;;;
2021/08/09 00:58:15;;;;;;;4.1;2.3;;;;;;;16.17;100;98757.33;;;;
2021/08/09 01:08:15;;;;;;;2;1;;;;;;;16.11;100;98749.38;;;;
2021/08/09 01:18:15;;;;;;;3.6;1.5;;;;;;;15.99;100;98760.26;;;;
2021/08/09 01:28:14;;;;;;;2.6;1.4;;;;;;;15.82;100;98763.18;;;;
2021/08/09 01:38:14;;;;;;;3.6;1.3;;;;;;;15.39;100;98771.75;;;;
2021/08/09 01:48:13;;;;;;;1.8;0.9;;;;;;;15.16;100;98794.96;;;;
2021/08/09 01:58:13;;;;;;;2.9;0.9;;;;;;;14.95;100;98775.97;;;;
2021/08/09 02:08:12;;;;;;;2;1.1;;;;;;;14.92;100;98787.49;;;;
2021/08/09 02:18:12;;;;;;;3.3;0.8;;;;;;;14.71;100;98802.95;;;;
2021/08/09 02:28:11;;;;;;;2;0.8;;;;;;;14.6;100;98831.58;;;;
2021/08/09 02:38:10;;;;;;;2.5;1;;;;;;;14.65;100;98853.08;;;;
2021/08/09 02:48:10;;;;;;;4.7;1.7;;;;;;;14.55;100;98865.1;;;;
2021/08/09 02:58:10;;;;;;;2.1;0.8;;;;;;;14.33;100;98883.52;;;;
2021/08/09 03:08:08;;;;;;;2.3;0.8;;;;;;;14.15;100;98892.82;;;;
2021/08/09 03:18:08;;;;;;;3.6;1.6;;;;;;;14.03;100;98896.98;;;;
2021/08/09 03:28:07;;;;;;;2.4;1.2;;;;;;;13.95;100;98903.2;;;;
2021/08/09 03:38:06;;;;;;;2.7;1;;;;;;;13.72;100;98926.19;;;;
2021/08/09 03:48:06;;;;;;;3.9;1.1;;;;;;;13.8;100;98919.98;;;;
2021/08/09 03:58:05;;;;;;;2.7;0.9;;;;;;;13.74;100;98940.23;;;;
2021/08/09 04:08:04;;;;;;;3.4;1.2;;;;;;;13.95;100;98941.14;;;;
2021/08/09 04:18:04;;;;;;;4.8;1.3;;;;;;;14.14;100;98938.1;;;;
2021/08/09 04:28:03;;;;;;;6;2.1;;;;;;;14.35;100;98946.38;;;;
2021/08/09 04:38:02;;;;;;;3.1;1.8;;;;;;;14.68;100;98946.6;;;;
2021/08/09 04:48:02;;;;;;;2.4;0.9;;;;;;;15.09;100;98952.16;;;;
2021/08/09 04:58:01;;;;;;;3.7;1.4;;;;;;;15.37;100;98953.27;;;;
2021/08/09 05:08:01;;;;;;;2.3;0.8;;;;;;;15.62;100;98954.21;;;;
2021/08/09 05:18:00;;;;;;;3.7;1.4;;;;;;;15.94;100;98966.27;;;;
2021/08/09 05:28:00;;;;;;;4.1;1;;;;;;;16.33;100;98964.94;;;;
2021/08/09 05:38:00;;;;;;;5;1.2;;;;;;;16.8;100;98960.75;;;;
2021/08/09 05:47:59;;;;;;;2.1;1.2;;;;;;;17.14;100;98964.18;;;;
2021/08/09 05:57:59;;;;;;;2.2;0.8;;;;;;;17.38;100;98966.88;;;;
2021/08/09 06:07:59;;;;;;;3.7;1.6;;;;;;;17.67;100;98958.44;;;;
2021/08/09 06:17:59;;;;;;;7.7;5.7;;;;;;;17.59;100;98959.38;;;;
2021/08/09 06:27:58;;;;;;;9.8;3.9;;;;;;;17.78;100;98950.57;;;;
2021/08/09 06:37:58;;;;;;;4.8;2.6;;;;;;;18.27;100;98964.8;;;;
2021/08/09 06:47:58;;;;;;;4.3;2.5;;;;;;;18.53;100;98965.17;;;;
2021/08/09 06:57:58;;;;;;;6.3;2.7;;;;;;;18.73;100;98972.31;;;;
2021/08/09 07:07:58;;;;;;;6.4;1.8;;;;;;;19.14;100;98979.17;;;;
2021/08/09 07:17:58;;;;;;;3.2;1.6;;;;;;;19.44;100;98991.23;;;;
2021/08/09 07:27:58;;;;;;;4.3;1.8;;;;;;;19.69;100;98996.46;;;;
2021/08/09 07:37:58;;;;;;;6;1.8;;;;;;;19.9;100;98986.78;;;;
2021/08/09 07:47:58;;;;;;;3.6;1.3;;;;;;;19.9;100;98989.52;;;;
2021/08/09 07:57:58;;;;;;;3.9;1.4;;;;;;;20.1;100;98998.51;;;;
2021/08/09 08:07:58;;;;;;;2.7;1.2;;;;;;;20.27;100;99000.84;;;;
2021/08/09 08:17:59;;;;;;;3.3;1.4;;;;;;;20.59;100;98998.72;;;;
2021/08/09 08:27:59;;;;;;;2.3;1.2;;;;;;;20.79;100;99002.98;;;;
2021/08/09 08:37:59;;;;;;;3.7;1.7;;;;;;;21.01;100;98991.24;;;;
2021/08/09 08:47:59;;;;;;;5.8;2.3;;;;;;;21.51;100;98990.11;;;;
2021/08/09 08:58:00;;;;;;;5.6;2;;;;;;;21.66;100;98987.57;;;;
2021/08/09 09:08:00;;;;;;;5.5;1.5;;;;;;;22.06;100;98999.5;;;;
2021/08/09 09:18:00;;;;;;;2.5;1.3;;;;;;;22.29;100;99013.1;;;;
2021/08/09 09:28:01;;;;;;;2.8;1.2;;;;;;;22.48;100;99009.41;;;;
2021/08/09 09:38:01;;;;;;;3.7;1.1;;;;;;;22.5;100;98998.82;;;;
2021/08/09 09:48:02;;;;;;;3.9;1.6;;;;;;;22.94;100;99007.16;;;;
2021/08/09 09:58:02;;;;;;;1.5;0.7;;;;;;;23.11;100;99008.48;;;;
2021/08/09 10:08:03;;;;;;;2.9;1.2;;;;;;;23.27;100;99008.98;;;;
2021/08/09 10:18:03;;;;;;;3.4;1.6;;;;;;;23.72;100;99010.5;;;;
2021/08/09 10:28:05;;;;;;;2.6;1.1;;;;;;;23.93;100;98994.91;;;;
2021/08/09 10:38:05;;;;;;;2;1.1;;;;;;;24.03;100;98998.88;;;;
2021/08/09 10:48:06;;;;;;;4;1.5;;;;;;;24.38;100;99004.55;;;;
2021/08/09 10:58:06;;;;;;;2;0.7;;;;;;;24.94;100;99014.16;;;;
2021/08/09 11:08:07;;;;;;;2.2;0.6;;;;;;;24.84;100;99020.44;;;;
2021/08/09 11:18:08;;;;;;;3.4;1.1;;;;;;;24.47;100;99015.98;;;;
2021/08/09 11:28:09;;;;;;;1.8;0.9;;;;;;;24.98;100;99014.95;;;;
2021/08/09 11:38:10;;;;;;;3.9;1.3;;;;;;;25.01;100;99003.92;;;;
2021/08/09 11:48:11;;;;;;;2.2;0.8;;;;;;;25.02;100;99013.78;;;;
2021/08/09 11:58:11;;;;;;;2.1;1.1;;;;;;;25.01;100;99001.16;;;;
2021/08/09 12:08:12;;;;;;;3.6;1;;;;;;;24.96;100;98995.23;;;;
2021/08/09 12:18:13;;;;;;;1.8;0.9;;;;;;;25.15;97.10547;98994.86;;;;
2021/08/09 12:28:14;;;;;;;2.3;0.8;;;;;;;25.47;95.14258;98983.8;;;;
2021/08/09 12:38:15;;;;;;;2.9;1.1;;;;;;;25.11;97.38574;98988.55;;;;
2021/08/09 12:48:16;;;;;;;3.2;1.1;;;;;;;24.76;94.47266;98986.52;;;;
2021/08/09 12:58:17;;;;;;;3.7;1.5;;;;;;;25.27;98.20898;98974.37;;;;
2021/08/09 13:08:18;;;;;;;3.4;1.7;;;;;;;25.57;95.51074;98982.23;;;;
2021/08/09 13:18:19;;;;;;;2.2;1.1;;;;;;;25.54;98.65137;98964.5;;;;
2021/08/09 13:28:19;;;;;;;5.7;3.9;;;;;;;25.49;88.35059;98964.85;;;;
2021/08/09 13:38:20;;;;;;;3.2;1.5;;;;;;;26.14;90.98047;98955.98;;;;
2021/08/09 13:48:21;;;;;;;3.5;1.2;;;;;;;26.43;83.16699;98948.36;;;;
2021/08/09 13:58:22;;;;;;;5.8;1.2;;;;;;;26.76;88.89941;98955.27;;;;
2021/08/09 14:08:23;;;;;;;2.7;1.3;;;;;;;26.91;83.2207;98957.53;;;;
2021/08/09 14:18:24;;;;;;;2.8;1.1;;;;;;;26.99;83.07129;98950.75;;;;
2021/08/09 14:28:26;;;;;;;3;1.2;;;;;;;27.25;78.33203;98942.99;;;;
2021/08/09 14:38:27;;;;;;;3.4;1.6;;;;;;;27.37;77.41406;98950.8;;;;
2021/08/09 14:48:28;;;;;;;3.1;1.7;;;;;;;27.44;83.77148;98936.89;;;;
2021/08/09 14:58:29;;;;;;;3;1.2;;;;;;;27.43;77.20215;98930.56;;;;
2021/08/09 15:08:30;;;;;;;4.7;1.3;;;;;;;27.08;79.40332;98933.67;;;;
2021/08/09 15:18:31;;;;;;;3.6;1.9;;;;;;;27.74;74.30859;98930.64;;;;
2021/08/09 15:28:32;;;;;;;3.1;2;;;;;;;29.72;72.79297;98922.03;;;;
2021/08/09 15:38:33;;;;;;;5.2;1.5;;;;;;;31.5;61.67676;98919.48;;;;
2021/08/09 15:48:35;;;;;;;4.1;1.1;;;;;;;33.4;55.30469;98924.77;;;;
2021/08/09 15:58:37;;;;;;;3.1;1.8;;;;;;;33.26;53.50684;98913.3;;;;
2021/08/09 16:08:39;;;;;;;2.9;1.3;;;;;;;33.83;50.9873;98907.27;;;;
2021/08/09 16:18:41;;;;;;;3.5;1.1;;;;;;;33.66;47.02441;98896.73;;;;
2021/08/09 16:28:43;;;;;;;3.6;1.6;;;;;;;31;53.58887;98898.52;;;;
2021/08/09 16:38:45;;;;;;;24.6;18.3;;;;;;;28.72;62.89648;98892.5;;;;
2021/08/09 16:48:47;;;;;;;29.6;21.8;;;;;;;27.24;69.15723;98888.86;;;;
2021/08/09 16:58:49;;;;;;;4.5;2.3;;;;;;;26.32;71.72266;98892.35;;;;
2021/08/09 17:08:50;;;;;;;10.1;8.1;;;;;;;26.04;73.98535;98888.55;;;;
2021/08/09 17:18:50;;;;;;;4.4;1.7;;;;;;;25.22;95.21973;98876.22;;;;
2021/08/09 17:28:51;;;;;;;5.4;2.3;;;;;;;26.41;91.72168;98871.36;;;;
2021/08/09 17:38:52;;;;;;;5.4;2.4;;;;;;;24.95;99.36719;98861.3;;;;
2021/08/09 17:48:53;;;;;;;4.3;2.3;;;;;;;24.05;99.75879;98861.6;;;;
2021/08/09 17:58:53;;;;;;;5.5;3.1;;;;;;;23;100;98871.72;;;;
2021/08/09 18:08:54;;;;;;;10.6;5.1;;;;;;;22.39;100;98868.82;;;;
2021/08/09 18:18:55;;;;;;;12.8;5.7;;;;;;;21.67;100;98865.68;;;;
2021/08/09 18:28:55;;;;;;;6.2;3.3;;;;;;;21.16;100;98874.44;;;;
2021/08/09 18:38:55;;;;;;;6.2;2.9;;;;;;;20.64;100;98885.34;;;;
2021/08/09 18:48:55;;;;;;;5.5;3.2;;;;;;;20.28;100;98892.14;;;;
2021/08/09 18:58:56;;;;;;;6.9;3.9;;;;;;;19.99;100;98904.5;;;;
2021/08/09 19:08:56;;;;;;;11.6;10.4;;;;;;;19.74;100;98914.94;;;;
2021/08/09 19:18:56;;;;;;;8.1;4.6;;;;;;;19.54;100;98910.62;;;;
2021/08/09 19:28:56;;;;;;;15.2;3;;;;;;;19.23;100;98899.75;;;;
2021/08/09 19:38:56;;;;;;;5.2;3.4;;;;;;;19.03;100;98899.69;;;;
2021/08/09 19:48:56;;;;;;;7.5;3.9;;;;;;;18.82;100;98909.31;;;;
2021/08/09 19:58:56;;;;;;;10.2;4.9;;;;;;;18.72;100;98901.66;;;;
2021/08/09 20:08:56;;;;;;;7.5;4.1;;;;;;;18.55;100;98897.35;;;;
2021/08/09 20:18:56;;;;;;;8.6;4.3;;;;;;;18.45;100;98892.39;;;;
2021/08/09 20:28:56;;;;;;;9.4;4.2;;;;;;;18.12;100;98900.88;;;;
2021/08/09 20:38:55;;;;;;;6.7;3.5;;;;;;;17.94;100;98897.7;;;;
2021/08/09 20:48:55;;;;;;;5;3.3;;;;;;;17.8;100;98891.84;;;;
2021/08/09 20:58:55;;;;;;;5.2;3.1;;;;;;;17.76;100;98904.58;;;;
2021/08/09 21:08:55;;;;;;;6.6;3.3;;;;;;;17.7;100;98910.63;;;;
2021/08/09 21:18:55;;;;;;;7;3.8;;;;;;;17.53;100;98906.2;;;;
2021/08/09 21:28:54;;;;;;;9;4.9;;;;;;;17.43;100;98906.68;;;;
2021/08/09 21:38:54;;;;;;;7.6;4.5;;;;;;;17.54;100;98905.07;;;;
2021/08/09 21:48:54;;;;;;;7;4.8;;;;;;;17.5;100;98893.27;;;;
2021/08/09 21:58:54;;;;;;;9.5;6.3;;;;;;;17.41;100;98887.17;;;;
2021/08/09 22:08:53;;;;;;;8.8;5.6;;;;;;;17.3;100;98891.51;;;;
2021/08/09 22:18:53;;;;;;;6.3;4.5;;;;;;;16.97;100;98883.52;;;;
2021/08/09 22:28:53;;;;;;;5.7;4.3;;;;;;;16.84;100;98882.72;;;;
2021/08/09 22:38:52;;;;;;;6.8;4.2;;;;;;;16.55;100;98886.48;;;;
2021/08/09 22:48:52;;;;;;;6.6;3.7;;;;;;;16.55;100;98891.92;;;;
2021/08/09 22:58:52;;;;;;;5.9;3.5;;;;;;;16.37;100;98889.7;;;;
2021/08/09 23:08:51;;;;;;;17;5.7;;;;;;;16.22;100;98888.42;;;;
2021/08/09 23:18:51;;;;;;;5.1;3.5;;;;;;;16.09;100;98881.37;;;;
2021/08/09 23:28:50;;;;;;;8.1;5;;;;;;;16;100;98911.35;;;;
2021/08/09 23:38:50;;;;;;;9.6;3.7;;;;;;;15.89;100;98904.77;;;;
2021/08/09 23:48:49;;;;;;;6;3.6;;;;;;;15.77;100;98918.3;;;;
2021/08/09 23:58:51;;;;;;;5.9;4;;;;;;;15.83;100;98949.56;;;;
